This is the latest recevied weather packets stored in our database for station/object AD8IZ-13. If no packets are shown the sender has not sent any weather packets the latest 10 day(s).
| Time | Temp. | Humidity | Pressure | Rain* | Wind** | Luminosity | Snow |
|---|---|---|---|---|---|---|---|
| 1777665920 | 10° C | 76% | 1013.5 hPa | 0 mm | - | 197 W/m² | - |
| 1777665316 | 10° C | 79% | 1013.5 hPa | 0 mm | - | 485 W/m² | - |
| 1777664722 | 10° C | 79% | 1013.4 hPa | 0 mm | - | 348 W/m² | - |
| 1777664120 | 9.44° C | 81% | 1013.4 hPa | 0 mm | - | 592 W/m² | - |
| 1777663520 | 10° C | 79% | 1013.1 hPa | 0 mm | - | 286 W/m² | - |
| 1777662917 | 10.56° C | 80% | 1013 hPa | 0 mm | - | 594 W/m² | - |
| 1777662318 | 11.11° C | 79% | 1012.8 hPa | 0 mm | - | 472 W/m² | - |
| 1777661717 | 11.11° C | 79% | 1012.5 hPa | 0 mm | - | 647 W/m² | - |
| 1777661119 | 11.67° C | 77% | 1012.3 hPa | 0 mm | - | 540 W/m² | - |
| 1777660521 | 11.11° C | 81% | 1012.1 hPa | 0 mm | - | 652 W/m² | - |
| 1777659918 | 11.67° C | 79% | 1011.9 hPa | 0 mm | - | 100 W/m² | - |
| 1777659359 | 11.11° C | 85% | 1012 hPa | 0 mm | - | 669 W/m² | - |
| 1777658719 | 10° C | 92% | 1012.1 hPa | 0 mm | - | 762 W/m² | - |
| 1777658125 | 9.44° C | 92% | 1012.1 hPa | 0 mm | - | 54 W/m² | - |
| 1777657526 | 9.44° C | 93% | 1012 hPa | 0 mm | - | 111 W/m² | - |
| 1777656925 | 9.44° C | 93% | 1012 hPa | 0 mm | - | 147 W/m² | - |
| 1777656325 | 8.89° C | 93% | 1012.1 hPa | 0 mm | - | 150 W/m² | - |
| 1777655726 | 8.89° C | 92% | 1012 hPa | 0 mm | - | 86 W/m² | - |
| 1777655126 | 8.89° C | 93% | 1012 hPa | 0.25 mm | - | 182 W/m² | - |
| 1777654528 | 8.89° C | 94% | 1012 hPa | 1.02 mm | - | 169 W/m² | - |
| 1777653927 | 8.33° C | 95% | 1011.9 hPa | 1.27 mm | - | 247 W/m² | - |
| 1777653327 | 8.33° C | 95% | 1012 hPa | 1.27 mm | - | 265 W/m² | - |
| 1777652726 | 7.78° C | 95% | 1012.1 hPa | 1.27 mm | - | 94 W/m² | - |
| 1777652127 | 7.78° C | 95% | 1012.3 hPa | 1.27 mm | - | 96 W/m² | - |
| 1777651526 | 7.78° C | 95% | 1012.5 hPa | 1.27 mm | - | 82 W/m² | - |
* Rain latest hour (hover to see other rain measurements)
** Current wind speed in m/s (hover to see current wind gust speed)